Amelia, Nebraska
Current Conditions -  °F | °C
As of 12:55 PM on Sunday 23 Nov 2014 (Local Time) from KONL Reporting Station
Clear Clear  
Wind Chill: 35°   Ceiling: Unl
Heat Index: 45°   Visibility: 10mi
Dew Point: 30°   Wind: 28mph
Humidity: 57%   Direction: 330°NNW
Pressure: 29.6"   Gusts: 35mph
Location:  42.24°N, 98.91°W
Report Text: KONL 231855Z AUTO 33024G30KT 10SM CLR 07/M01 A2960 RMK AO2 T00701009
Loading
Personal Weather Stations






























Interactive Weather Map New forecast layout! Learn more

10-Day Weather Forecast

Advertisements
Track Severe Weather on mobile